Startpagina
METAR-TAF:

METAR-TAF

Vliegvelden :

Kemmerer, Wyoming, Verenigde Staten

breedte: 41-49-27N, lengte: 110-33-25W, hoogte: 2220 m

Actueel weer

Dit bericht is 29 minuten geleden gemaakt, om 04:15 UTC
Wind 15 kt uit het westen met uitschieters tot 20 kt
Temperatuur -1°C
Vochtigheid 93%
Druk 1012 hPa
Zicht: 16.1 km
Verspreide wolken op 400 ft
Gebroken wolken op 1500 ft
Geheel bewolkt op 2000 ft

METAR: KEMM 090415Z AUTO 26015G20KT 10SM SCT004 BKN015 OVC020 M01/M02 A2987 RMK AO2

Tijdstip: 21:44 (04:44 UTC)


TAF: ontbreekt

Waarnemingen en weersverwachtingen van meer dan 4000 vliegvelden (METAR en TAF).

De beschikbare stations zijn de gele en rode punten op de kaart.

Ga met uw muis naar het station om de naam te zien.

Klik dan om waarnemingen en weersverwachtingen te zien.

kaart wijzigen: klik op de groene knoppen met een zwart kruis om in te zoomen, op de groene knop met een streepje om uit te zoomen of op de groene pijlen voor aangrenzende kaarten.


METAR-TAF: